createdAt,value
2022-09-18T00:01:20.642Z,7.60
2022-09-18T00:03:50.238Z,7.60
2022-09-18T00:06:20.295Z,7.60
2022-09-18T00:08:52.152Z,7.70
2022-09-18T00:11:22.406Z,7.70
2022-09-18T00:13:51.559Z,7.70
2022-09-18T00:16:22.586Z,7.70
2022-09-18T00:18:52.309Z,7.70
2022-09-18T00:21:24.465Z,7.70
2022-09-18T00:23:54.035Z,7.70
2022-09-18T00:26:25.655Z,7.70
2022-09-18T00:28:54.109Z,7.70
2022-09-18T00:31:25.598Z,7.70
2022-09-18T00:33:55.456Z,7.70
2022-09-18T00:36:23.985Z,7.70
2022-09-18T00:38:52.356Z,7.70
2022-09-18T00:41:23.854Z,7.70
2022-09-18T00:43:52.312Z,7.70
2022-09-18T00:46:26.054Z,7.60
2022-09-18T00:49:05.388Z,7.60
2022-09-18T00:51:35.321Z,7.60
2022-09-18T00:54:11.942Z,7.50
2022-09-18T00:56:40.443Z,7.60
2022-09-18T00:59:13.587Z,7.50
2022-09-18T01:01:41.639Z,7.50
2022-09-18T01:04:13.022Z,7.50
2022-09-18T01:06:47.716Z,7.50
2022-09-18T01:09:28.866Z,7.60
2022-09-18T01:12:05.768Z,7.60
2022-09-18T01:14:41.950Z,7.50
2022-09-18T01:17:20.645Z,7.50
2022-09-18T01:20:17.145Z,7.50
2022-09-18T01:23:00.459Z,7.60
2022-09-18T01:25:37.008Z,7.50
2022-09-18T01:28:17.600Z,7.60
2022-09-18T01:30:49.726Z,7.60
2022-09-18T01:33:26.334Z,7.60
2022-09-18T01:35:58.275Z,7.60
2022-09-18T01:38:33.237Z,7.70
2022-09-18T01:41:06.225Z,7.70
2022-09-18T01:43:38.431Z,7.70
2022-09-18T01:46:12.191Z,7.70
2022-09-18T01:48:45.160Z,7.70
2022-09-18T01:51:18.362Z,7.70
2022-09-18T01:53:49.723Z,7.80
2022-09-18T01:56:23.053Z,7.80
2022-09-18T01:58:53.422Z,7.90
2022-09-18T02:01:25.046Z,7.90
2022-09-18T02:03:59.816Z,7.90
2022-09-18T02:06:33.631Z,7.90
2022-09-18T02:09:03.383Z,7.80
2022-09-18T02:11:34.477Z,7.80
2022-09-18T02:14:09.744Z,7.70
2022-09-18T02:16:43.256Z,7.70
2022-09-18T02:19:17.084Z,7.70
2022-09-18T02:21:48.267Z,7.70
2022-09-18T02:24:20.195Z,7.60
2022-09-18T02:26:51.836Z,7.60
2022-09-18T02:29:24.021Z,7.60
2022-09-18T02:31:52.729Z,7.60
2022-09-18T02:34:21.788Z,7.50
2022-09-18T02:37:05.547Z,7.50
2022-09-18T02:39:53.825Z,7.50
2022-09-18T02:42:31.943Z,7.50
2022-09-18T02:45:09.820Z,7.50
2022-09-18T02:47:49.949Z,7.50
2022-09-18T02:50:21.572Z,7.50
2022-09-18T02:52:56.043Z,7.50
2022-09-18T02:55:29.629Z,7.50
2022-09-18T02:58:01.772Z,7.50
2022-09-18T03:00:33.017Z,7.40
2022-09-18T03:03:01.248Z,7.40
2022-09-18T03:05:29.302Z,7.40
2022-09-18T03:07:58.770Z,7.40
2022-09-18T03:10:26.812Z,7.40
2022-09-18T03:12:57.391Z,7.40
2022-09-18T03:15:25.340Z,7.40
2022-09-18T03:17:54.639Z,7.40
2022-09-18T03:20:22.565Z,7.40
2022-09-18T03:22:50.534Z,7.40
2022-09-18T03:25:18.522Z,7.50
2022-09-18T03:27:46.485Z,7.50
2022-09-18T03:30:14.609Z,7.50
2022-09-18T03:32:42.544Z,7.50
2022-09-18T03:35:12.148Z,7.50
2022-09-18T03:37:40.006Z,7.50
2022-09-18T03:40:09.385Z,7.60
2022-09-18T03:42:37.417Z,7.60
2022-09-18T03:45:06.576Z,7.60
2022-09-18T03:47:36.677Z,7.60
2022-09-18T03:50:05.947Z,7.60
2022-09-18T03:52:35.392Z,7.60
2022-09-18T03:55:05.604Z,7.60
2022-09-18T03:57:33.596Z,7.60
2022-09-18T04:00:01.616Z,7.70
2022-09-18T04:02:29.580Z,7.60
2022-09-18T04:04:57.808Z,7.60
2022-09-18T04:07:25.851Z,7.60
2022-09-18T04:09:55.146Z,7.60
2022-09-18T04:12:23.299Z,7.70
2022-09-18T04:14:51.224Z,7.70
2022-09-18T04:17:19.193Z,7.70
2022-09-18T04:19:51.340Z,7.60
2022-09-18T04:22:21.667Z,7.60
2022-09-18T04:24:50.287Z,7.60
2022-09-18T04:27:19.673Z,7.70
2022-09-18T04:29:47.858Z,7.60
2022-09-18T04:32:15.881Z,7.60
2022-09-18T04:34:43.947Z,7.60
2022-09-18T04:37:11.905Z,7.60
2022-09-18T04:39:40.311Z,7.60
2022-09-18T04:42:08.446Z,7.60
2022-09-18T04:44:39.473Z,7.60
2022-09-18T04:47:09.034Z,7.50
2022-09-18T04:49:37.012Z,7.60
2022-09-18T04:52:05.561Z,7.60
2022-09-18T04:54:33.503Z,7.60
2022-09-18T04:57:01.459Z,7.60
2022-09-18T04:59:29.406Z,7.70
2022-09-18T05:01:58.760Z,7.70
2022-09-18T05:04:26.743Z,7.80
2022-09-18T05:06:54.729Z,7.80
2022-09-18T05:09:22.667Z,7.80
2022-09-18T05:11:50.596Z,7.90
2022-09-18T05:14:18.527Z,7.90
2022-09-18T05:16:46.506Z,7.90
2022-09-18T05:19:15.953Z,7.90
2022-09-18T05:21:43.973Z,8.00
2022-09-18T05:24:13.967Z,7.90
2022-09-18T05:26:41.932Z,8.00
2022-09-18T05:29:10.810Z,8.00
2022-09-18T05:31:41.849Z,8.00
2022-09-18T05:34:11.278Z,8.00
2022-09-18T05:36:40.627Z,8.10
2022-09-18T05:39:08.618Z,8.10
2022-09-18T05:41:38.003Z,8.10
2022-09-18T05:44:06.350Z,8.10
2022-09-18T05:46:34.426Z,8.10
2022-09-18T05:49:02.849Z,8.10
2022-09-18T05:51:30.785Z,8.20
2022-09-18T05:54:00.280Z,8.30
2022-09-18T05:56:28.444Z,8.30
2022-09-18T05:58:56.679Z,8.40
2022-09-18T06:01:24.687Z,8.50
2022-09-18T06:03:53.009Z,8.70
2022-09-18T06:06:20.987Z,8.70
2022-09-18T06:08:49.376Z,8.80
2022-09-18T06:11:18.713Z,8.90
2022-09-18T06:13:48.981Z,8.90
2022-09-18T06:16:17.246Z,8.80
2022-09-18T06:18:45.249Z,8.80
2022-09-18T06:21:15.044Z,8.70
2022-09-18T06:23:43.496Z,8.70
2022-09-18T06:26:14.952Z,8.70
2022-09-18T06:28:44.907Z,8.80
2022-09-18T06:31:12.933Z,9.00
2022-09-18T06:33:40.966Z,9.10
2022-09-18T06:36:13.822Z,9.20
2022-09-18T06:38:41.873Z,9.40
2022-09-18T06:41:09.940Z,9.50
2022-09-18T06:43:37.899Z,9.50
2022-09-18T06:46:07.897Z,9.50
2022-09-18T06:48:35.856Z,9.70
2022-09-18T06:51:03.813Z,9.70
2022-09-18T06:53:31.810Z,9.70
2022-09-18T06:56:02.374Z,9.80
2022-09-18T06:58:30.419Z,9.80
2022-09-18T07:01:00.748Z,9.80
2022-09-18T07:03:30.209Z,10.00
2022-09-18T07:05:58.249Z,10.20
2022-09-18T07:08:26.237Z,10.30
2022-09-18T07:10:54.233Z,10.40
2022-09-18T07:13:22.217Z,10.60
2022-09-18T07:15:50.254Z,10.70
2022-09-18T07:18:18.255Z,10.80
2022-09-18T07:20:48.570Z,11.00
2022-09-18T07:23:16.564Z,11.10
2022-09-18T07:25:44.571Z,11.20
2022-09-18T07:28:12.906Z,11.40
2022-09-18T07:30:41.708Z,11.50
2022-09-18T07:33:11.229Z,11.70
2022-09-18T07:35:39.217Z,11.80
2022-09-18T07:38:09.140Z,12.00
2022-09-18T07:40:37.623Z,12.00
2022-09-18T07:43:07.565Z,12.10
2022-09-18T07:45:36.275Z,12.30
2022-09-18T07:48:06.212Z,12.40
2022-09-18T07:50:34.605Z,12.50
2022-09-18T07:53:05.227Z,12.50
2022-09-18T07:55:36.649Z,12.70
2022-09-18T07:58:06.338Z,12.90
2022-09-18T08:00:36.974Z,12.90
2022-09-18T08:03:06.023Z,13.10
2022-09-18T08:05:34.316Z,13.00
2022-09-18T08:08:06.203Z,12.90
2022-09-18T08:10:36.743Z,12.70
2022-09-18T08:13:05.142Z,12.50
2022-09-18T08:15:34.690Z,12.30
2022-09-18T08:18:02.486Z,12.30
2022-09-18T08:20:30.576Z,12.20
2022-09-18T08:22:58.846Z,12.10
2022-09-18T08:25:28.394Z,12.00
2022-09-18T08:27:59.317Z,11.90
2022-09-18T08:30:27.351Z,11.80
2022-09-18T08:32:59.268Z,11.70
2022-09-18T08:35:27.748Z,11.60
2022-09-18T08:37:55.793Z,11.50
2022-09-18T08:40:34.883Z,11.50
2022-09-18T08:43:12.717Z,11.60
2022-09-18T08:45:52.308Z,11.70
2022-09-18T08:48:25.318Z,11.80
2022-09-18T08:51:00.303Z,11.90
2022-09-18T08:53:33.911Z,12.00
2022-09-18T08:56:05.008Z,12.20
2022-09-18T08:58:39.768Z,12.20
2022-09-18T09:01:10.346Z,12.10
2022-09-18T09:03:47.712Z,12.20
2022-09-18T09:06:30.172Z,12.40
2022-09-18T09:09:23.773Z,12.50
2022-09-18T09:11:56.880Z,12.70
2022-09-18T09:14:56.187Z,12.70
2022-09-18T09:17:39.528Z,12.90
2022-09-18T09:20:28.567Z,13.40
2022-09-18T09:23:03.875Z,13.90
2022-09-18T09:25:39.750Z,13.90
2022-09-18T09:28:16.899Z,14.20
2022-09-18T09:30:52.740Z,14.40
2022-09-18T09:33:24.998Z,14.50
2022-09-18T09:35:56.078Z,14.80
2022-09-18T09:38:38.587Z,15.10
2022-09-18T09:41:17.145Z,15.30
2022-09-18T09:43:54.750Z,15.10
2022-09-18T09:46:37.440Z,14.70
2022-09-18T09:49:12.493Z,14.50
2022-09-18T09:51:50.302Z,14.30
2022-09-18T09:54:18.602Z,13.80
2022-09-18T09:56:53.650Z,13.50
2022-09-18T09:59:30.198Z,13.20
2022-09-18T10:02:14.113Z,12.80
2022-09-18T10:04:48.226Z,12.50
2022-09-18T10:07:22.712Z,12.50
2022-09-18T10:09:57.831Z,13.20
2022-09-18T10:12:32.052Z,13.70
2022-09-18T10:15:07.941Z,14.20
2022-09-18T10:17:41.314Z,14.70
2022-09-18T10:20:15.944Z,15.20
2022-09-18T10:22:44.493Z,15.50
2022-09-18T10:25:21.590Z,15.80
2022-09-18T10:27:49.641Z,15.90
2022-09-18T10:30:17.894Z,16.10
2022-09-18T10:32:49.275Z,16.30
2022-09-18T10:35:35.592Z,16.40
2022-09-18T10:38:03.576Z,16.50
2022-09-18T10:40:33.931Z,16.90
2022-09-18T10:43:03.336Z,17.30
2022-09-18T10:45:32.768Z,17.70
2022-09-18T10:48:07.998Z,17.80
2022-09-18T10:50:37.330Z,17.60
2022-09-18T10:53:23.284Z,17.30
2022-09-18T10:55:55.791Z,17.10
2022-09-18T10:58:29.823Z,16.60
2022-09-18T11:01:02.439Z,16.10
2022-09-18T11:03:40.487Z,15.70
2022-09-18T11:06:16.677Z,15.30
2022-09-18T11:08:48.131Z,15.20
2022-09-18T11:11:23.512Z,14.80
2022-09-18T11:13:57.220Z,14.50
2022-09-18T11:16:27.730Z,14.20
2022-09-18T11:19:07.748Z,13.90
2022-09-18T11:21:45.209Z,13.50
2022-09-18T11:24:28.593Z,13.10
2022-09-18T11:26:57.858Z,12.80
2022-09-18T11:29:31.778Z,12.50
2022-09-18T11:32:16.618Z,12.40
2022-09-18T11:34:50.026Z,12.40
2022-09-18T11:37:36.038Z,12.40
2022-09-18T11:40:07.600Z,12.30
2022-09-18T11:42:43.186Z,12.30
2022-09-18T11:45:43.783Z,12.20
2022-09-18T11:48:22.109Z,12.10
2022-09-18T11:50:54.019Z,12.00
2022-09-18T11:53:26.093Z,12.00
2022-09-18T11:55:58.648Z,12.70
2022-09-18T11:58:32.328Z,13.60
2022-09-18T12:01:10.204Z,14.40
2022-09-18T12:03:44.004Z,14.60
2022-09-18T12:06:22.470Z,14.60
2022-09-18T12:08:56.205Z,15.10
2022-09-18T12:11:32.153Z,15.80
2022-09-18T12:14:09.110Z,16.30
2022-09-18T12:16:46.025Z,16.50
2022-09-18T12:19:19.771Z,17.00
2022-09-18T12:21:56.746Z,17.50
2022-09-18T12:24:24.708Z,18.00
2022-09-18T12:27:01.789Z,18.30
2022-09-18T12:29:43.727Z,18.60
2022-09-18T12:32:29.144Z,18.80
2022-09-18T12:35:10.122Z,19.30
2022-09-18T12:37:52.995Z,19.80
2022-09-18T12:40:38.182Z,19.30
2022-09-18T12:43:29.825Z,18.70
2022-09-18T12:46:09.425Z,18.10
2022-09-18T12:48:55.128Z,17.30
2022-09-18T12:51:41.150Z,16.80
2022-09-18T12:54:30.195Z,16.40
2022-09-18T12:57:16.894Z,15.90
2022-09-18T12:59:54.967Z,15.50
2022-09-18T13:02:43.552Z,15.40
2022-09-18T13:05:19.166Z,15.30
2022-09-18T13:07:52.681Z,15.20
2022-09-18T13:10:26.473Z,15.20
2022-09-18T13:13:00.375Z,15.30
2022-09-18T13:15:34.087Z,15.20
2022-09-18T13:18:16.129Z,15.00
2022-09-18T13:20:46.637Z,14.70
2022-09-18T13:23:18.631Z,14.50
2022-09-18T13:25:51.579Z,14.30
2022-09-18T13:28:23.150Z,14.10
2022-09-18T13:31:24.678Z,14.00
2022-09-18T13:33:55.827Z,13.80
2022-09-18T13:36:25.986Z,13.80
2022-09-18T13:38:54.732Z,13.60
2022-09-18T13:41:24.585Z,13.40
2022-09-18T13:43:55.595Z,13.40
2022-09-18T13:46:36.703Z,13.20
2022-09-18T13:49:18.427Z,13.10
2022-09-18T13:51:46.631Z,13.10
2022-09-18T13:54:29.278Z,13.00
2022-09-18T13:57:29.707Z,13.10
2022-09-18T14:00:01.624Z,13.20
2022-09-18T14:02:32.839Z,13.40
2022-09-18T14:05:04.300Z,13.40
2022-09-18T14:07:54.949Z,13.40
2022-09-18T14:10:54.884Z,13.40
2022-09-18T14:13:51.731Z,13.30
2022-09-18T14:16:40.673Z,13.20
2022-09-18T14:19:32.148Z,13.10
2022-09-18T14:22:01.353Z,13.00
2022-09-18T14:24:41.496Z,13.00
2022-09-18T14:27:30.682Z,13.00
2022-09-18T14:30:03.726Z,12.90
2022-09-18T14:32:32.561Z,12.80
2022-09-18T14:35:35.719Z,12.70
2022-09-18T14:38:15.871Z,12.60
2022-09-18T14:40:49.226Z,12.40
2022-09-18T14:43:18.239Z,12.40
2022-09-18T14:45:50.791Z,12.30
2022-09-18T14:48:26.985Z,12.20
2022-09-18T14:51:04.335Z,12.20
2022-09-18T14:53:40.245Z,12.20
2022-09-18T14:56:10.561Z,12.10
2022-09-18T14:58:42.017Z,12.10
2022-09-18T15:01:17.677Z,12.20
2022-09-18T15:03:49.358Z,12.20
2022-09-18T15:06:22.065Z,12.10
2022-09-18T15:08:54.532Z,12.10
2022-09-18T15:11:26.797Z,12.10
2022-09-18T15:13:56.436Z,12.10
2022-09-18T15:16:29.806Z,12.00
2022-09-18T15:18:58.687Z,12.00
2022-09-18T15:21:33.076Z,11.90
2022-09-18T15:24:03.264Z,11.90
2022-09-18T15:26:33.676Z,11.80
2022-09-18T15:29:03.534Z,11.80
2022-09-18T15:31:33.722Z,11.70
2022-09-18T15:34:06.881Z,11.70
2022-09-18T15:36:36.384Z,11.60
2022-09-18T15:39:05.713Z,11.60
2022-09-18T15:41:41.414Z,11.50
2022-09-18T15:44:54.296Z,11.50
2022-09-18T15:47:32.690Z,11.40
2022-09-18T15:50:02.723Z,11.30
2022-09-18T15:52:37.464Z,11.20
2022-09-18T15:55:19.177Z,11.10
2022-09-18T15:57:50.026Z,11.10
2022-09-18T16:00:19.603Z,11.00
2022-09-18T16:02:52.087Z,11.00
2022-09-18T16:05:21.534Z,10.90
2022-09-18T16:07:53.272Z,10.90
2022-09-18T16:10:48.879Z,10.80
2022-09-18T16:13:35.010Z,10.70
2022-09-18T16:16:24.987Z,10.60
2022-09-18T16:18:57.081Z,10.60
2022-09-18T16:21:28.048Z,10.60
2022-09-18T16:23:59.103Z,10.50
2022-09-18T16:26:30.745Z,10.50
2022-09-18T16:29:01.095Z,10.40
2022-09-18T16:31:32.964Z,10.40
2022-09-18T16:34:03.908Z,10.40
2022-09-18T16:36:34.300Z,10.40
2022-09-18T16:39:05.179Z,10.40
2022-09-18T16:41:34.120Z,10.30
2022-09-18T16:44:04.077Z,10.30
2022-09-18T16:46:38.491Z,10.20
2022-09-18T16:49:08.079Z,10.20
2022-09-18T16:51:35.907Z,10.10
2022-09-18T16:54:03.940Z,10.10
2022-09-18T16:56:36.165Z,10.00
2022-09-18T16:59:06.773Z,10.00
2022-09-18T17:01:48.582Z,10.00
2022-09-18T17:04:25.493Z,9.90
2022-09-18T17:06:54.076Z,9.80
2022-09-18T17:09:23.767Z,9.80
2022-09-18T17:11:51.996Z,9.80
2022-09-18T17:14:20.399Z,9.70
2022-09-18T17:16:48.447Z,9.70
2022-09-18T17:19:16.574Z,9.70
2022-09-18T17:21:46.578Z,9.60
2022-09-18T17:24:14.815Z,9.60
2022-09-18T17:26:42.907Z,9.60
2022-09-18T17:29:12.201Z,9.60
2022-09-18T17:31:40.440Z,9.60
2022-09-18T17:34:08.550Z,9.60
2022-09-18T17:36:36.962Z,9.50
2022-09-18T17:39:06.747Z,9.60
2022-09-18T17:41:34.972Z,9.50
2022-09-18T17:44:03.648Z,9.50
2022-09-18T17:46:31.774Z,9.50
2022-09-18T17:49:00.814Z,9.40
2022-09-18T17:51:29.427Z,9.40
2022-09-18T17:53:59.923Z,9.40
2022-09-18T17:56:30.688Z,9.40
2022-09-18T17:59:00.148Z,9.30
2022-09-18T18:01:29.657Z,9.30
2022-09-18T18:03:58.327Z,9.30
2022-09-18T18:06:27.272Z,9.30
2022-09-18T18:08:57.205Z,9.30
2022-09-18T18:11:26.208Z,9.30
2022-09-18T18:13:56.232Z,9.30
2022-09-18T18:16:30.383Z,9.30
2022-09-18T18:19:00.036Z,9.30
2022-09-18T18:21:28.846Z,9.30
2022-09-18T18:23:57.817Z,9.30
2022-09-18T18:26:27.876Z,9.30
2022-09-18T18:28:57.479Z,9.30
2022-09-18T18:31:26.062Z,9.20
2022-09-18T18:33:55.419Z,9.20
2022-09-18T18:36:25.704Z,9.20
2022-09-18T18:38:56.789Z,9.20
2022-09-18T18:41:28.056Z,9.10
2022-09-18T18:43:59.485Z,9.10
2022-09-18T18:46:29.044Z,9.10
2022-09-18T18:49:01.670Z,9.10
2022-09-18T18:51:31.780Z,9.10
2022-09-18T18:54:01.130Z,9.10
2022-09-18T18:56:29.440Z,9.10
2022-09-18T18:59:00.593Z,9.10
2022-09-18T19:01:30.263Z,9.10
2022-09-18T19:04:00.162Z,9.10
2022-09-18T19:06:28.637Z,9.20
2022-09-18T19:08:57.913Z,9.10
2022-09-18T19:11:26.522Z,9.10
2022-09-18T19:13:57.246Z,9.10
2022-09-18T19:16:27.702Z,9.10
2022-09-18T19:18:58.511Z,9.10
2022-09-18T19:21:27.276Z,9.10
2022-09-18T19:23:59.210Z,9.10
2022-09-18T19:26:29.952Z,9.10
2022-09-18T19:28:59.600Z,9.00
2022-09-18T19:31:30.457Z,9.00
2022-09-18T19:33:58.513Z,9.00
2022-09-18T19:36:29.453Z,9.00
2022-09-18T19:38:59.162Z,8.90
2022-09-18T19:41:34.277Z,8.90
2022-09-18T19:44:05.284Z,8.90
2022-09-18T19:46:36.801Z,8.90
2022-09-18T19:49:04.873Z,8.90
2022-09-18T19:51:35.814Z,8.90
2022-09-18T19:54:04.007Z,8.90
2022-09-18T19:56:43.039Z,8.90
2022-09-18T19:59:11.564Z,8.80
2022-09-18T20:01:41.023Z,8.90
2022-09-18T20:04:09.200Z,8.90
2022-09-18T20:06:38.755Z,8.90
2022-09-18T20:09:06.611Z,8.90
2022-09-18T20:11:35.187Z,8.90
2022-09-18T20:14:03.307Z,8.80
2022-09-18T20:16:31.362Z,8.80
2022-09-18T20:19:01.118Z,8.80
2022-09-18T20:21:29.711Z,8.80
2022-09-18T20:23:59.080Z,8.80
2022-09-18T20:26:28.825Z,8.70
2022-09-18T20:28:56.865Z,8.70
2022-09-18T20:31:26.730Z,8.70
2022-09-18T20:33:56.451Z,8.70
2022-09-18T20:36:27.145Z,8.70
2022-09-18T20:38:56.472Z,8.70
2022-09-18T20:41:26.887Z,8.70
2022-09-18T20:43:55.189Z,8.70
2022-09-18T20:46:24.159Z,8.70
2022-09-18T20:48:55.136Z,8.70
2022-09-18T20:51:25.708Z,8.70
2022-09-18T20:53:57.215Z,8.70
2022-09-18T20:56:27.373Z,8.70
2022-09-18T20:58:56.671Z,8.70
2022-09-18T21:01:26.709Z,8.70
2022-09-18T21:03:57.019Z,8.70
2022-09-18T21:06:26.560Z,8.70
2022-09-18T21:08:56.249Z,8.70
2022-09-18T21:11:27.363Z,8.70
2022-09-18T21:13:57.696Z,8.60
2022-09-18T21:16:27.418Z,8.60
2022-09-18T21:19:00.154Z,8.60
2022-09-18T21:21:30.449Z,8.60
2022-09-18T21:24:02.217Z,8.60
2022-09-18T21:26:33.385Z,8.60
2022-09-18T21:29:03.944Z,8.60
2022-09-18T21:31:33.479Z,8.60
2022-09-18T21:34:02.533Z,8.50
2022-09-18T21:36:33.541Z,8.50
2022-09-18T21:39:03.584Z,8.50
2022-09-18T21:41:39.484Z,8.50
2022-09-18T21:44:09.465Z,8.50
2022-09-18T21:46:39.775Z,8.50
2022-09-18T21:49:09.344Z,8.50
2022-09-18T21:51:40.096Z,8.40
2022-09-18T21:54:15.090Z,8.40
2022-09-18T21:56:43.116Z,8.40
2022-09-18T21:59:11.895Z,8.40
2022-09-18T22:01:41.621Z,8.40
2022-09-18T22:04:10.780Z,8.30
2022-09-18T22:06:40.829Z,8.30
2022-09-18T22:09:12.784Z,8.30
2022-09-18T22:11:41.753Z,8.30
2022-09-18T22:14:12.772Z,8.30
2022-09-18T22:16:42.970Z,8.20
2022-09-18T22:19:11.113Z,8.20
2022-09-18T22:21:40.666Z,8.20
2022-09-18T22:24:10.802Z,8.10
2022-09-18T22:26:40.392Z,8.10
2022-09-18T22:29:08.960Z,8.10
2022-09-18T22:31:39.026Z,8.10
2022-09-18T22:34:07.898Z,8.10
2022-09-18T22:36:36.463Z,8.10
2022-09-18T22:39:05.987Z,8.00
2022-09-18T22:41:39.745Z,8.00
2022-09-18T22:44:08.418Z,7.90
2022-09-18T22:46:38.502Z,7.90
2022-09-18T22:49:06.983Z,7.90
2022-09-18T22:51:36.119Z,7.90
2022-09-18T22:54:07.603Z,7.90
2022-09-18T22:56:40.313Z,7.90
2022-09-18T22:59:09.125Z,8.00
2022-09-18T23:01:42.512Z,8.00
2022-09-18T23:04:11.047Z,8.00
2022-09-18T23:06:39.547Z,8.00
2022-09-18T23:09:07.571Z,7.90
2022-09-18T23:11:36.950Z,7.90
2022-09-18T23:14:08.630Z,7.90
2022-09-18T23:16:37.895Z,7.90
2022-09-18T23:19:09.621Z,7.90
2022-09-18T23:21:39.899Z,7.90
2022-09-18T23:24:09.435Z,7.90
2022-09-18T23:26:38.564Z,7.90
2022-09-18T23:29:10.348Z,7.90
2022-09-18T23:31:39.702Z,7.90
2022-09-18T23:34:09.199Z,7.90
2022-09-18T23:36:39.088Z,7.90
2022-09-18T23:39:11.540Z,7.90
2022-09-18T23:41:40.145Z,7.80
2022-09-18T23:44:11.540Z,7.80
2022-09-18T23:46:39.917Z,7.90
2022-09-18T23:49:08.912Z,7.80
2022-09-18T23:51:40.425Z,7.80
2022-09-18T23:54:12.393Z,7.80
2022-09-18T23:56:40.321Z,7.80
2022-09-18T23:59:09.636Z,7.80
